Wrightsville, Arkansas
Current Conditions -  °F | °C
As of 3:53 AM on Tuesday 27 Jan 2015 (Local Time) from KLIT Reporting Station
Clear Clear  
Wind Chill: 37°   Ceiling: Unl
Heat Index: 41°   Visibility: 10mi
Dew Point: 33°   Wind: 6mph
Humidity: 73%   Direction: 270°W
Pressure: 30.03"   Gusts: NA
Location:  34.6°N, 92.22°W
Report Text: KLIT 270953Z 27005KT 10SM CLR 05/01 A3003 RMK AO2 SLP172 T00500006
Loading
Personal Weather Stations






























Interactive Weather Map New forecast layout! Learn more

10-Day Weather Forecast

Advertisements
Track Severe Weather on mobile